Time,TemperatureF,DewpointF,PressureIn,WindDirection,WindDirectionDegrees,WindSpeedMPH,WindSpeedGustMPH,Humidity,HourlyPrecipIn,Conditions,Clouds,dailyrainin,SoftwareType,DateUTC
2013-12-03 00:00:00,46.5,45.7,29.83,South,185,0.0,1.0,97,0.21,,,0.13,Wunderground v.1.15,2013-12-03 05:00:00,
2013-12-03 00:05:00,46.6,45.8,29.83,South,185,0.0,1.0,97,0.08,,,0.13,Wunderground v.1.15,2013-12-03 05:05:00,
2013-12-03 00:15:00,46.6,45.8,29.84,South,185,0.0,0.0,97,0.00,,,0.00,Wunderground v.1.15,2013-12-03 05:15:00,
2013-12-03 00:20:00,46.6,45.8,29.84,South,185,0.0,1.0,97,0.00,,,0.00,Wunderground v.1.15,2013-12-03 05:20:00,
2013-12-03 00:25:00,46.7,45.9,29.84,South,184,0.0,1.0,97,0.00,,,0.00,Wunderground v.1.15,2013-12-03 05:25:00,
2013-12-03 00:30:00,46.7,45.9,29.84,South,185,0.0,0.0,97,0.00,,,0.00,Wunderground v.1.15,2013-12-03 05:30:00,
2013-12-03 00:35:00,46.7,45.9,29.83,South,185,0.0,0.0,97,0.00,,,0.01,Wunderground v.1.15,2013-12-03 05:35:00,
2013-12-03 00:40:00,46.7,45.9,29.83,South,185,0.0,0.0,97,0.00,,,0.01,Wunderground v.1.15,2013-12-03 05:40:00,
2013-12-03 00:45:00,46.7,45.9,29.83,South,185,0.0,0.0,97,0.00,,,0.01,Wunderground v.1.15,2013-12-03 05:45:00,
2013-12-03 00:50:00,46.8,46.0,29.84,South,185,0.0,0.0,97,0.00,,,0.01,Wunderground v.1.15,2013-12-03 05:50:00,
2013-12-03 00:55:00,46.7,45.9,29.84,South,184,0.0,0.0,97,0.00,,,0.01,Wunderground v.1.15,2013-12-03 05:55:00,
2013-12-03 01:00:00,46.8,46.0,29.83,South,184,0.0,1.0,97,0.00,,,0.01,Wunderground v.1.15,2013-12-03 06:00:00,
2013-12-03 01:05:00,46.8,46.0,29.83,South,185,0.0,1.0,97,0.00,,,0.01,Wunderground v.1.15,2013-12-03 06:05:00,
2013-12-03 01:10:00,46.8,46.0,29.83,South,185,0.0,0.0,97,0.00,,,0.01,Wunderground v.1.15,2013-12-03 06:10:00,
2013-12-03 01:15:00,46.7,45.9,29.83,South,184,0.0,0.0,97,0.00,,,0.01,Wunderground v.1.15,2013-12-03 06:15:00,
2013-12-03 01:20:00,46.6,45.8,29.83,South,184,0.0,0.0,97,0.00,,,0.01,Wunderground v.1.15,2013-12-03 06:20:00,
2013-12-03 01:25:00,46.6,45.8,29.83,South,185,0.0,2.0,97,0.00,,,0.01,Wunderground v.1.15,2013-12-03 06:25:00,
2013-12-03 01:30:00,46.8,46.0,29.83,South,185,0.0,0.0,97,0.00,,,0.01,Wunderground v.1.15,2013-12-03 06:30:00,
2013-12-03 01:35:00,46.8,46.0,29.83,South,185,0.0,0.0,97,0.00,,,0.01,Wunderground v.1.15,2013-12-03 06:35:00,
2013-12-03 01:40:00,46.9,46.4,29.83,South,185,0.0,0.0,98,0.00,,,0.01,Wunderground v.1.15,2013-12-03 06:40:00,
2013-12-03 01:45:00,46.9,46.4,29.83,South,184,0.0,0.0,98,0.00,,,0.01,Wunderground v.1.15,2013-12-03 06:45:00,
2013-12-03 01:50:00,47.0,46.5,29.83,South,184,0.0,0.0,98,0.00,,,0.01,Wunderground v.1.15,2013-12-03 06:50:00,
2013-12-03 01:55:00,47.0,46.2,29.83,South,185,0.0,0.0,97,0.00,,,0.01,Wunderground v.1.15,2013-12-03 06:55:00,
2013-12-03 02:05:00,47.1,46.3,29.83,South,185,0.0,2.0,97,0.00,,,0.01,Wunderground v.1.15,2013-12-03 07:05:00,
2013-12-03 02:15:00,47.0,46.2,29.83,South,185,0.0,0.0,97,0.00,,,0.02,Wunderground v.1.15,2013-12-03 07:15:00,
2013-12-03 02:20:00,47.1,46.3,29.83,South,176,0.0,0.0,97,0.00,,,0.02,Wunderground v.1.15,2013-12-03 07:20:00,
2013-12-03 02:25:00,47.1,46.3,29.83,South,176,0.0,0.0,97,0.04,,,0.03,Wunderground v.1.15,2013-12-03 07:25:00,
2013-12-03 02:30:00,47.2,46.4,29.82,South,176,0.0,0.0,97,0.04,,,0.03,Wunderground v.1.15,2013-12-03 07:30:00,
2013-12-03 02:35:00,47.3,46.5,29.83,South,176,0.0,0.0,97,0.04,,,0.03,Wunderground v.1.15,2013-12-03 07:35:00,
2013-12-03 02:40:00,47.3,46.5,29.82,South,176,0.0,0.0,97,0.04,,,0.03,Wunderground v.1.15,2013-12-03 07:40:00,
2013-12-03 02:45:00,47.3,46.5,29.82,South,176,0.0,0.0,97,0.00,,,0.03,Wunderground v.1.15,2013-12-03 07:45:00,
2013-12-03 02:50:00,47.4,46.9,29.82,SSE,165,0.0,1.0,98,0.00,,,0.03,Wunderground v.1.15,2013-12-03 07:50:00,
2013-12-03 02:55:00,47.4,46.9,29.82,SSE,164,1.0,1.0,98,0.00,,,0.03,Wunderground v.1.15,2013-12-03 07:55:00,
2013-12-03 03:00:00,47.6,47.1,29.82,SSE,164,1.0,1.0,98,0.00,,,0.03,Wunderground v.1.15,2013-12-03 08:00:00,
2013-12-03 03:05:00,47.6,47.1,29.82,SSE,164,0.0,1.0,98,0.00,,,0.03,Wunderground v.1.15,2013-12-03 08:05:00,
2013-12-03 03:10:00,47.7,46.9,29.82,SSE,164,0.0,0.0,97,0.00,,,0.03,Wunderground v.1.15,2013-12-03 08:10:00,
2013-12-03 03:15:00,47.7,46.9,29.82,SSE,164,0.0,0.0,97,0.00,,,0.03,Wunderground v.1.15,2013-12-03 08:15:00,
2013-12-03 03:20:00,47.8,47.0,29.82,SSE,164,0.0,0.0,97,0.00,,,0.03,Wunderground v.1.15,2013-12-03 08:20:00,
2013-12-03 03:25:00,47.8,47.0,29.82,SSE,164,0.0,0.0,97,0.00,,,0.03,Wunderground v.1.15,2013-12-03 08:25:00,
2013-12-03 03:29:00,47.8,47.0,29.82,SSE,164,0.0,0.0,97,0.00,,,0.03,Wunderground v.1.15,2013-12-03 08:29:00,
2013-12-03 03:35:00,47.9,47.1,29.82,SSE,164,0.0,0.0,97,0.00,,,0.03,Wunderground v.1.15,2013-12-03 08:35:00,
2013-12-03 03:40:00,47.9,47.1,29.82,SSE,164,0.0,0.0,97,0.00,,,0.03,Wunderground v.1.15,2013-12-03 08:40:00,
2013-12-03 03:45:00,47.9,47.1,29.83,SSE,164,0.0,0.0,97,0.00,,,0.03,Wunderground v.1.15,2013-12-03 08:45:00,
2013-12-03 03:49:00,47.9,47.1,29.83,SSE,164,0.0,0.0,97,0.00,,,0.03,Wunderground v.1.15,2013-12-03 08:49:00,
2013-12-03 03:55:00,47.9,47.1,29.83,SSE,164,0.0,0.0,97,0.00,,,0.03,Wunderground v.1.15,2013-12-03 08:55:00,
2013-12-03 04:00:00,47.9,47.1,29.83,SSE,164,0.0,2.0,97,0.00,,,0.04,Wunderground v.1.15,2013-12-03 09:00:00,
2013-12-03 04:05:00,47.9,47.1,29.83,SSE,164,1.0,2.0,97,0.00,,,0.04,Wunderground v.1.15,2013-12-03 09:05:00,
2013-12-03 04:10:00,47.8,47.0,29.83,SSE,164,1.0,2.0,97,0.00,,,0.04,Wunderground v.1.15,2013-12-03 09:10:00,
2013-12-03 04:15:00,47.8,47.0,29.83,SSE,164,1.0,2.0,97,0.00,,,0.04,Wunderground v.1.15,2013-12-03 09:15:00,
2013-12-03 04:19:00,47.9,47.1,29.83,SSE,162,1.0,2.0,97,0.00,,,0.04,Wunderground v.1.15,2013-12-03 09:19:00,
2013-12-03 04:25:00,47.9,47.1,29.83,SSE,162,1.0,2.0,97,0.00,,,0.04,Wunderground v.1.15,2013-12-03 09:25:00,
2013-12-03 04:30:00,47.9,47.1,29.83,SSE,160,1.0,2.0,97,0.00,,,0.04,Wunderground v.1.15,2013-12-03 09:30:00,
2013-12-03 04:35:00,47.9,47.1,29.83,SSE,159,1.0,2.0,97,0.00,,,0.04,Wunderground v.1.15,2013-12-03 09:35:00,
2013-12-03 04:40:00,47.9,47.1,29.83,SSE,159,1.0,1.0,97,0.00,,,0.04,Wunderground v.1.15,2013-12-03 09:40:00,
2013-12-03 04:45:00,47.9,47.1,29.82,SSE,157,1.0,1.0,97,0.00,,,0.04,Wunderground v.1.15,2013-12-03 09:45:00,
2013-12-03 04:50:00,47.9,47.1,29.82,SSE,157,1.0,1.0,97,0.00,,,0.04,Wunderground v.1.15,2013-12-03 09:50:00,
2013-12-03 04:55:00,47.9,47.1,29.83,SSE,157,1.0,1.0,97,0.00,,,0.04,Wunderground v.1.15,2013-12-03 09:55:00,
2013-12-03 05:00:00,47.9,47.1,29.83,SSE,157,1.0,2.0,97,0.00,,,0.04,Wunderground v.1.15,2013-12-03 10:00:00,
2013-12-03 05:05:00,47.9,47.1,29.83,SSE,155,1.0,2.0,97,0.00,,,0.04,Wunderground v.1.15,2013-12-03 10:05:00,
2013-12-03 05:15:00,48.0,47.2,29.83,SSE,153,1.0,2.0,97,0.00,,,0.04,Wunderground v.1.15,2013-12-03 10:15:00,
2013-12-03 05:20:00,48.0,47.2,29.83,SSE,153,1.0,1.0,97,0.00,,,0.04,Wunderground v.1.15,2013-12-03 10:20:00,
2013-12-03 05:25:00,48.0,47.2,29.83,SSE,153,0.0,1.0,97,0.00,,,0.04,Wunderground v.1.15,2013-12-03 10:25:00,
2013-12-03 05:30:00,48.0,47.2,29.83,SSE,152,1.0,1.0,97,0.00,,,0.04,Wunderground v.1.15,2013-12-03 10:30:00,
2013-12-03 05:35:00,48.1,47.3,29.83,SSE,153,1.0,1.0,97,0.00,,,0.04,Wunderground v.1.15,2013-12-03 10:35:00,
2013-12-03 05:40:00,48.1,47.3,29.83,SSE,153,0.0,1.0,97,0.00,,,0.04,Wunderground v.1.15,2013-12-03 10:40:00,
2013-12-03 05:50:00,48.1,47.3,29.83,SSE,153,1.0,1.0,97,0.00,,,0.04,Wunderground v.1.15,2013-12-03 10:50:00,
2013-12-03 05:55:00,48.0,47.2,29.83,SSE,153,1.0,2.0,97,0.00,,,0.04,Wunderground v.1.15,2013-12-03 10:55:00,
2013-12-03 06:00:00,48.0,47.2,29.83,SSE,152,1.0,1.0,97,0.00,,,0.04,Wunderground v.1.15,2013-12-03 11:00:00,
2013-12-03 06:05:00,48.0,46.9,29.83,SSE,152,0.0,1.0,96,0.00,,,0.04,Wunderground v.1.15,2013-12-03 11:05:00,
2013-12-03 06:10:00,48.1,47.0,29.83,SSE,153,0.0,0.0,96,0.00,,,0.04,Wunderground v.1.15,2013-12-03 11:10:00,
2013-12-03 06:15:00,48.0,46.9,29.83,SSE,152,0.0,0.0,96,0.00,,,0.04,Wunderground v.1.15,2013-12-03 11:15:00,
2013-12-03 06:20:00,48.0,46.9,29.82,SSE,152,0.0,2.0,96,0.00,,,0.04,Wunderground v.1.15,2013-12-03 11:20:00,
2013-12-03 06:25:00,47.9,46.8,29.82,SSE,152,1.0,2.0,96,0.00,,,0.04,Wunderground v.1.15,2013-12-03 11:25:00,
2013-12-03 06:30:00,47.8,47.0,29.82,SSE,150,1.0,2.0,97,0.00,,,0.04,Wunderground v.1.15,2013-12-03 11:30:00,
2013-12-03 06:35:00,47.9,47.1,29.83,ESE,123,2.0,2.0,97,0.00,,,0.04,Wunderground v.1.15,2013-12-03 11:35:00,
2013-12-03 06:40:00,47.9,47.1,29.83,ESE,123,2.0,2.0,97,0.00,,,0.04,Wunderground v.1.15,2013-12-03 11:40:00,
2013-12-03 06:45:00,47.8,47.0,29.83,ESE,122,1.0,2.0,97,0.00,,,0.04,Wunderground v.1.15,2013-12-03 11:45:00,
2013-12-03 06:50:00,47.9,47.1,29.83,ESE,121,1.0,1.0,97,0.00,,,0.04,Wunderground v.1.15,2013-12-03 11:50:00,
2013-12-03 06:55:00,47.8,47.0,29.83,ESE,121,1.0,1.0,97,0.00,,,0.04,Wunderground v.1.15,2013-12-03 11:55:00,
2013-12-03 07:00:00,47.8,47.0,29.83,ESE,121,1.0,1.0,97,0.00,,,0.04,Wunderground v.1.15,2013-12-03 12:00:00,
2013-12-03 07:05:00,47.8,47.0,29.83,ESE,121,1.0,4.0,97,0.00,,,0.04,Wunderground v.1.15,2013-12-03 12:05:00,
2013-12-03 07:15:00,47.8,47.0,29.83,ESE,121,1.0,2.0,97,0.00,,,0.04,Wunderground v.1.15,2013-12-03 12:15:00,
2013-12-03 07:20:00,47.8,47.0,29.83,ESE,121,1.0,1.0,97,0.00,,,0.04,Wunderground v.1.15,2013-12-03 12:20:00,
2013-12-03 07:25:00,47.8,47.0,29.83,ESE,119,2.0,2.0,97,0.00,,,0.04,Wunderground v.1.15,2013-12-03 12:25:00,
2013-12-03 07:30:00,47.9,47.1,29.83,ESE,113,2.0,2.0,97,0.00,,,0.04,Wunderground v.1.15,2013-12-03 12:30:00,
2013-12-03 07:35:00,47.9,47.1,29.84,ESE,107,2.0,3.0,97,0.00,,,0.04,Wunderground v.1.15,2013-12-03 12:35:00,
2013-12-03 07:40:00,48.0,47.2,29.84,ESE,109,2.0,4.0,97,0.00,,,0.04,Wunderground v.1.15,2013-12-03 12:40:00,
2013-12-03 07:45:00,48.1,47.0,29.84,ESE,115,2.0,4.0,96,0.00,,,0.04,Wunderground v.1.15,2013-12-03 12:45:00,
2013-12-03 07:50:00,48.1,47.0,29.84,ESE,115,1.0,2.0,96,0.00,,,0.04,Wunderground v.1.15,2013-12-03 12:50:00,
2013-12-03 08:00:00,48.1,47.3,29.84,ESE,110,1.0,3.0,97,0.00,,,0.04,Wunderground v.1.15,2013-12-03 13:00:00,
2013-12-03 08:05:00,48.1,47.3,29.84,ESE,110,1.0,3.0,97,0.00,,,0.04,Wunderground v.1.15,2013-12-03 13:05:00,
2013-12-03 08:10:00,48.1,47.0,29.84,ESE,110,1.0,1.0,96,0.00,,,0.04,Wunderground v.1.15,2013-12-03 13:10:00,
2013-12-03 08:15:00,48.1,47.0,29.84,ESE,110,1.0,1.0,96,0.00,,,0.04,Wunderground v.1.15,2013-12-03 13:15:00,
2013-12-03 08:19:00,48.1,47.3,29.84,ESE,110,1.0,1.0,97,0.00,,,0.04,Wunderground v.1.15,2013-12-03 13:19:00,
2013-12-03 08:25:00,48.1,47.3,29.84,ESE,110,0.0,1.0,97,0.00,,,0.04,Wunderground v.1.15,2013-12-03 13:25:00,
2013-12-03 08:30:00,48.1,47.3,29.84,ESE,110,0.0,1.0,97,0.00,,,0.04,Wunderground v.1.15,2013-12-03 13:30:00,
2013-12-03 08:35:00,48.1,47.3,29.84,ESE,112,1.0,3.0,97,0.00,,,0.04,Wunderground v.1.15,2013-12-03 13:35:00,
2013-12-03 08:40:00,48.2,48.2,29.84,ESE,123,2.0,2.0,100,0.00,,,0.04,Wunderground v.1.15,2013-12-03 13:40:00,
2013-12-03 08:45:00,48.3,47.5,29.84,ESE,123,3.0,6.0,97,0.00,,,0.04,Wunderground v.1.15,2013-12-03 13:45:00,
2013-12-03 08:50:00,48.4,47.6,29.84,ESE,120,3.0,3.0,97,0.00,,,0.04,Wunderground v.1.15,2013-12-03 13:50:00,
2013-12-03 08:55:00,48.5,47.7,29.85,ESE,119,2.0,3.0,97,0.00,,,0.04,Wunderground v.1.15,2013-12-03 13:55:00,
2013-12-03 09:00:00,48.5,47.7,29.85,ESE,121,1.0,1.0,97,0.00,,,0.04,Wunderground v.1.15,2013-12-03 14:00:00,
2013-12-03 09:05:00,48.6,47.8,29.85,ESE,121,0.0,1.0,97,0.00,,,0.04,Wunderground v.1.15,2013-12-03 14:05:00,
2013-12-03 09:10:00,48.6,47.8,29.85,ESE,121,0.0,0.0,97,0.00,,,0.04,Wunderground v.1.15,2013-12-03 14:10:00,
2013-12-03 09:15:00,48.6,47.5,29.85,ESE,120,0.0,2.0,96,0.00,,,0.04,Wunderground v.1.15,2013-12-03 14:15:00,
2013-12-03 09:20:00,48.7,47.6,29.86,ESE,119,1.0,2.0,96,0.00,,,0.04,Wunderground v.1.15,2013-12-03 14:20:00,
2013-12-03 09:25:00,48.7,47.6,29.86,ESE,120,1.0,2.0,96,0.00,,,0.04,Wunderground v.1.15,2013-12-03 14:25:00,
2013-12-03 09:30:00,48.8,47.7,29.86,SE,131,2.0,2.0,96,0.00,,,0.04,Wunderground v.1.15,2013-12-03 14:30:00,
2013-12-03 09:35:00,48.8,47.7,29.86,SE,130,2.0,2.0,96,0.00,,,0.04,Wunderground v.1.15,2013-12-03 14:35:00,
2013-12-03 09:40:00,48.9,47.8,29.86,SE,129,2.0,2.0,96,0.00,,,0.04,Wunderground v.1.15,2013-12-03 14:40:00,
2013-12-03 09:45:00,49.0,47.9,29.86,SE,129,2.0,2.0,96,0.00,,,0.04,Wunderground v.1.15,2013-12-03 14:45:00,
2013-12-03 09:50:00,49.0,47.9,29.86,ESE,123,2.0,2.0,96,0.00,,,0.04,Wunderground v.1.15,2013-12-03 14:50:00,
2013-12-03 09:55:00,49.0,47.6,29.86,ESE,122,3.0,3.0,95,0.00,,,0.04,Wunderground v.1.15,2013-12-03 14:55:00,
2013-12-03 10:00:00,49.1,47.7,29.86,ESE,121,3.0,3.0,95,0.00,,,0.04,Wunderground v.1.15,2013-12-03 15:00:00,
2013-12-03 10:05:00,49.2,47.8,29.86,SE,130,2.0,3.0,95,0.00,,,0.04,Wunderground v.1.15,2013-12-03 15:05:00,
2013-12-03 10:10:00,49.2,47.8,29.87,ESE,122,2.0,3.0,95,0.00,,,0.04,Wunderground v.1.15,2013-12-03 15:10:00,
2013-12-03 10:20:00,49.5,48.1,29.87,ESE,123,3.0,3.0,95,0.00,,,0.04,Wunderground v.1.15,2013-12-03 15:20:00,
2013-12-03 10:25:00,49.6,48.2,29.87,SE,131,3.0,3.0,95,0.00,,,0.04,Wunderground v.1.15,2013-12-03 15:25:00,
2013-12-03 10:35:00,49.6,47.9,29.87,ESE,122,4.0,4.0,94,0.00,,,0.04,Wunderground v.1.15,2013-12-03 15:35:00,
2013-12-03 10:40:00,49.7,48.0,29.87,SE,128,4.0,4.0,94,0.00,,,0.04,Wunderground v.1.15,2013-12-03 15:40:00,
2013-12-03 10:45:00,49.8,48.1,29.87,ESE,110,3.0,4.0,94,0.00,,,0.04,Wunderground v.1.15,2013-12-03 15:45:00,
2013-12-03 10:50:00,49.9,48.5,29.87,ESE,116,2.0,2.0,95,0.00,,,0.04,Wunderground v.1.15,2013-12-03 15:50:00,
2013-12-03 10:55:00,50.0,48.6,29.87,ESE,113,2.0,5.0,95,0.00,,,0.04,Wunderground v.1.15,2013-12-03 15:55:00,
2013-12-03 11:00:00,50.1,48.7,29.86,ESE,110,3.0,3.0,95,0.00,,,0.04,Wunderground v.1.15,2013-12-03 16:00:00,
2013-12-03 11:05:00,50.3,48.9,29.86,ESE,111,3.0,3.0,95,0.00,,,0.04,Wunderground v.1.15,2013-12-03 16:05:00,
2013-12-03 11:10:00,50.3,48.6,29.86,ESE,115,3.0,3.0,94,0.00,,,0.04,Wunderground v.1.15,2013-12-03 16:10:00,
2013-12-03 11:15:00,50.4,48.7,29.86,ESE,117,4.0,8.0,94,0.00,,,0.04,Wunderground v.1.15,2013-12-03 16:15:00,
2013-12-03 11:20:00,50.5,48.8,29.86,ESE,116,4.0,4.0,94,0.00,,,0.04,Wunderground v.1.15,2013-12-03 16:20:00,
2013-12-03 11:25:00,50.8,49.1,29.85,ESE,114,4.0,4.0,94,0.00,,,0.04,Wunderground v.1.15,2013-12-03 16:25:00,
2013-12-03 11:30:00,51.2,49.5,29.85,ESE,102,4.0,4.0,94,0.00,,,0.04,Wunderground v.1.15,2013-12-03 16:30:00,
2013-12-03 11:35:00,51.4,49.7,29.85,ESE,121,3.0,4.0,94,0.00,,,0.04,Wunderground v.1.15,2013-12-03 16:35:00,
2013-12-03 11:45:00,51.6,49.4,29.84,East,96,4.0,4.0,92,0.00,,,0.04,Wunderground v.1.15,2013-12-03 16:45:00,
2013-12-03 11:50:00,51.7,49.7,29.84,ESE,110,4.0,4.0,93,0.00,,,0.04,Wunderground v.1.15,2013-12-03 16:50:00,
2013-12-03 11:54:00,51.5,49.5,29.84,ESE,117,3.0,4.0,93,0.00,,,0.04,Wunderground v.1.15,2013-12-03 16:54:00,
2013-12-03 12:00:00,51.5,49.8,29.84,ESE,103,3.0,3.0,94,0.00,,,0.04,Wunderground v.1.15,2013-12-03 17:00:00,
2013-12-03 12:05:00,51.9,49.9,29.83,ESE,103,3.0,3.0,93,0.00,,,0.04,Wunderground v.1.15,2013-12-03 17:05:00,
2013-12-03 12:15:00,52.0,50.0,29.83,ESE,121,3.0,4.0,93,0.00,,,0.04,Wunderground v.1.15,2013-12-03 17:15:00,
2013-12-03 12:20:00,52.1,50.1,29.82,ESE,119,3.0,3.0,93,0.00,,,0.04,Wunderground v.1.15,2013-12-03 17:20:00,
2013-12-03 12:30:00,52.1,49.8,29.83,South,191,1.0,5.0,92,0.00,,,0.04,Wunderground v.1.15,2013-12-03 17:30:00,
2013-12-03 12:35:00,51.9,49.6,29.83,East,99,2.0,5.0,92,0.00,,,0.04,Wunderground v.1.15,2013-12-03 17:35:00,
2013-12-03 12:40:00,51.7,49.7,29.82,ESE,107,3.0,3.0,93,0.00,,,0.04,Wunderground v.1.15,2013-12-03 17:40:00,
2013-12-03 12:45:00,51.6,49.6,29.82,SE,129,3.0,4.0,93,0.00,,,0.04,Wunderground v.1.15,2013-12-03 17:45:00,
2013-12-03 12:50:00,51.5,49.5,29.82,ESE,120,3.0,9.0,93,0.00,,,0.04,Wunderground v.1.15,2013-12-03 17:50:00,
2013-12-03 12:55:00,51.5,49.5,29.82,ESE,103,3.0,9.0,93,0.00,,,0.04,Wunderground v.1.15,2013-12-03 17:55:00,
2013-12-03 12:59:00,51.5,49.5,29.82,ESE,106,2.0,6.0,93,0.00,,,0.04,Wunderground v.1.15,2013-12-03 17:59:00,
2013-12-03 13:05:00,51.4,49.4,29.81,ESE,117,3.0,6.0,93,0.00,,,0.04,Wunderground v.1.15,2013-12-03 18:05:00,
2013-12-03 13:09:00,51.4,49.4,29.82,SE,132,3.0,3.0,93,0.00,,,0.04,Wunderground v.1.15,2013-12-03 18:09:00,
2013-12-03 13:15:00,51.4,49.4,29.82,SE,132,2.0,3.0,93,0.00,,,0.04,Wunderground v.1.15,2013-12-03 18:15:00,
2013-12-03 13:20:00,51.3,49.3,29.82,ESE,118,2.0,5.0,93,0.00,,,0.04,Wunderground v.1.15,2013-12-03 18:20:00,
2013-12-03 13:25:00,51.2,49.2,29.81,ESE,113,4.0,5.0,93,0.00,,,0.04,Wunderground v.1.15,2013-12-03 18:25:00,
2013-12-03 13:30:00,51.2,49.2,29.81,East,100,4.0,4.0,93,0.00,,,0.04,Wunderground v.1.15,2013-12-03 18:30:00,
2013-12-03 13:35:00,51.2,49.2,29.81,ESE,115,3.0,5.0,93,0.00,,,0.04,Wunderground v.1.15,2013-12-03 18:35:00,
2013-12-03 13:40:00,51.2,49.2,29.81,ESE,105,4.0,4.0,93,0.00,,,0.04,Wunderground v.1.15,2013-12-03 18:40:00,
2013-12-03 13:45:00,51.2,49.2,29.81,ESE,115,3.0,6.0,93,0.00,,,0.04,Wunderground v.1.15,2013-12-03 18:45:00,
2013-12-03 13:50:00,51.3,49.3,29.81,ESE,115,3.0,3.0,93,0.00,,,0.04,Wunderground v.1.15,2013-12-03 18:50:00,
2013-12-03 14:00:00,51.4,49.4,29.81,ESE,111,3.0,7.0,93,0.00,,,0.04,Wunderground v.1.15,2013-12-03 19:00:00,
2013-12-03 14:05:00,51.6,49.9,29.81,ESE,110,2.0,7.0,94,0.00,,,0.04,Wunderground v.1.15,2013-12-03 19:05:00,
2013-12-03 14:10:00,51.7,49.7,29.81,SSE,163,2.0,2.0,93,0.00,,,0.04,Wunderground v.1.15,2013-12-03 19:10:00,
2013-12-03 14:15:00,51.9,49.6,29.81,ESE,111,2.0,4.0,92,0.00,,,0.04,Wunderground v.1.15,2013-12-03 19:15:00,
2013-12-03 14:20:00,52.0,49.7,29.81,ESE,120,3.0,4.0,92,0.00,,,0.04,Wunderground v.1.15,2013-12-03 19:20:00,
2013-12-03 14:24:00,52.1,49.8,29.80,ESE,106,3.0,4.0,92,0.00,,,0.04,Wunderground v.1.15,2013-12-03 19:24:00,
2013-12-03 14:30:00,52.1,49.6,29.81,ESE,115,4.0,5.0,91,0.00,,,0.04,Wunderground v.1.15,2013-12-03 19:30:00,
2013-12-03 14:35:00,52.1,49.6,29.80,ESE,110,4.0,5.0,91,0.00,,,0.04,Wunderground v.1.15,2013-12-03 19:35:00,
2013-12-03 14:40:00,52.0,49.5,29.80,ESE,122,4.0,4.0,91,0.00,,,0.04,Wunderground v.1.15,2013-12-03 19:40:00,
2013-12-03 14:45:00,52.0,49.5,29.80,ESE,119,4.0,4.0,91,0.00,,,0.04,Wunderground v.1.15,2013-12-03 19:45:00,
2013-12-03 14:50:00,52.1,49.6,29.80,ESE,106,3.0,3.0,91,0.00,,,0.04,Wunderground v.1.15,2013-12-03 19:50:00,
2013-12-03 14:55:00,52.1,49.6,29.80,ESE,111,3.0,3.0,91,0.00,,,0.04,Wunderground v.1.15,2013-12-03 19:55:00,
2013-12-03 15:00:00,52.2,49.7,29.81,SE,131,2.0,6.0,91,0.00,,,0.04,Wunderground v.1.15,2013-12-03 20:00:00,
2013-12-03 15:05:00,52.4,49.8,29.80,ESE,121,2.0,6.0,91,0.00,,,0.04,Wunderground v.1.15,2013-12-03 20:05:00,
2013-12-03 15:10:00,52.7,50.1,29.80,ESE,110,2.0,3.0,91,0.00,,,0.04,Wunderground v.1.15,2013-12-03 20:10:00,
2013-12-03 15:15:00,52.8,50.2,29.80,ESE,114,3.0,3.0,91,0.00,,,0.04,Wunderground v.1.15,2013-12-03 20:15:00,
2013-12-03 15:19:00,52.9,50.6,29.80,ESE,123,3.0,3.0,92,0.00,,,0.04,Wunderground v.1.15,2013-12-03 20:19:00,
2013-12-03 15:25:00,52.9,50.3,29.79,ESE,105,3.0,6.0,91,0.00,,,0.04,Wunderground v.1.15,2013-12-03 20:25:00,
2013-12-03 15:30:00,52.8,50.2,29.80,ESE,105,3.0,4.0,91,0.00,,,0.04,Wunderground v.1.15,2013-12-03 20:30:00,
2013-12-03 15:35:00,52.6,50.0,29.80,ESE,121,5.0,5.0,91,0.00,,,0.04,Wunderground v.1.15,2013-12-03 20:35:00,
2013-12-03 15:40:00,52.4,49.8,29.80,ESE,113,4.0,11.0,91,0.00,,,0.04,Wunderground v.1.15,2013-12-03 20:40:00,
2013-12-03 15:45:00,52.2,49.7,29.81,ESE,116,3.0,11.0,91,0.00,,,0.04,Wunderground v.1.15,2013-12-03 20:45:00,
2013-12-03 15:50:00,52.0,49.5,29.81,ESE,113,4.0,4.0,91,0.00,,,0.04,Wunderground v.1.15,2013-12-03 20:50:00,
2013-12-03 15:55:00,51.8,49.3,29.81,ESE,103,4.0,4.0,91,0.00,,,0.04,Wunderground v.1.15,2013-12-03 20:55:00,
2013-12-03 16:05:00,51.7,49.5,29.81,ESE,113,4.0,4.0,92,0.00,,,0.04,Wunderground v.1.15,2013-12-03 21:05:00,
2013-12-03 16:10:00,51.8,49.5,29.82,ESE,118,3.0,4.0,92,0.00,,,0.04,Wunderground v.1.15,2013-12-03 21:10:00,
2013-12-03 16:15:00,51.8,49.5,29.82,ESE,123,2.0,4.0,92,0.00,,,0.04,Wunderground v.1.15,2013-12-03 21:15:00,
2013-12-03 16:20:00,51.9,49.6,29.82,ESE,122,2.0,2.0,92,0.00,,,0.04,Wunderground v.1.15,2013-12-03 21:20:00,
2013-12-03 16:25:00,51.9,49.6,29.82,ESE,122,2.0,2.0,92,0.00,,,0.04,Wunderground v.1.15,2013-12-03 21:25:00,
2013-12-03 16:30:00,52.0,49.7,29.82,ESE,122,1.0,1.0,92,0.00,,,0.04,Wunderground v.1.15,2013-12-03 21:30:00,
2013-12-03 16:35:00,52.0,49.5,29.81,ESE,122,1.0,1.0,91,0.00,,,0.04,Wunderground v.1.15,2013-12-03 21:35:00,
2013-12-03 16:40:00,52.1,49.8,29.82,ESE,122,1.0,2.0,92,0.00,,,0.04,Wunderground v.1.15,2013-12-03 21:40:00,
2013-12-03 16:44:00,52.2,49.9,29.81,SE,125,1.0,2.0,92,0.00,,,0.04,Wunderground v.1.15,2013-12-03 21:44:00,
2013-12-03 16:50:00,52.3,49.8,29.81,ESE,114,1.0,1.0,91,0.00,,,0.04,Wunderground v.1.15,2013-12-03 21:50:00,
2013-12-03 16:55:00,52.5,49.9,29.81,ESE,115,1.0,4.0,91,0.00,,,0.04,Wunderground v.1.15,2013-12-03 21:55:00,
2013-12-03 17:00:00,52.4,49.6,29.81,ESE,123,2.0,2.0,90,0.00,,,0.04,Wunderground v.1.15,2013-12-03 22:00:00,
2013-12-03 17:05:00,52.3,49.5,29.81,ESE,119,2.0,2.0,90,0.00,,,0.04,Wunderground v.1.15,2013-12-03 22:05:00,
2013-12-03 17:10:00,52.2,49.4,29.81,ESE,118,2.0,2.0,90,0.00,,,0.04,Wunderground v.1.15,2013-12-03 22:10:00,
2013-12-03 17:15:00,52.1,49.6,29.81,ESE,121,2.0,2.0,91,0.00,,,0.04,Wunderground v.1.15,2013-12-03 22:15:00,
2013-12-03 17:20:00,51.9,49.4,29.81,ESE,121,2.0,3.0,91,0.00,,,0.04,Wunderground v.1.15,2013-12-03 22:20:00,
2013-12-03 17:25:00,51.8,49.3,29.81,East,95,2.0,3.0,91,0.00,,,0.04,Wunderground v.1.15,2013-12-03 22:25:00,
2013-12-03 17:30:00,51.8,49.3,29.81,East,97,2.0,2.0,91,0.00,,,0.04,Wunderground v.1.15,2013-12-03 22:30:00,
2013-12-03 17:34:00,51.8,49.3,29.82,East,97,1.0,2.0,91,0.00,,,0.04,Wunderground v.1.15,2013-12-03 22:34:00,
2013-12-03 17:40:00,51.7,49.5,29.82,East,97,0.0,0.0,92,0.00,,,0.04,Wunderground v.1.15,2013-12-03 22:40:00,
2013-12-03 17:45:00,51.6,49.4,29.83,East,97,0.0,0.0,92,0.00,,,0.04,Wunderground v.1.15,2013-12-03 22:45:00,
2013-12-03 17:50:00,51.6,49.4,29.83,East,97,0.0,0.0,92,0.00,,,0.04,Wunderground v.1.15,2013-12-03 22:50:00,
2013-12-03 18:00:00,51.5,49.3,29.83,East,96,0.0,6.0,92,0.00,,,0.04,Wunderground v.1.15,2013-12-03 23:00:00,
2013-12-03 18:05:00,51.5,49.3,29.83,East,96,0.0,6.0,92,0.00,,,0.04,Wunderground v.1.15,2013-12-03 23:05:00,
2013-12-03 18:15:00,51.5,49.3,29.84,East,97,0.0,0.0,92,0.00,,,0.04,Wunderground v.1.15,2013-12-03 23:15:00,
2013-12-03 18:20:00,51.5,49.3,29.84,East,96,0.0,0.0,92,0.00,,,0.04,Wunderground v.1.15,2013-12-03 23:20:00,
2013-12-03 18:24:00,51.5,49.3,29.84,East,97,0.0,1.0,92,0.00,,,0.04,Wunderground v.1.15,2013-12-03 23:24:00,
2013-12-03 18:30:00,51.7,49.5,29.84,East,97,1.0,1.0,92,0.00,,,0.04,Wunderground v.1.15,2013-12-03 23:30:00,
2013-12-03 18:35:00,51.7,49.5,29.83,East,98,1.0,3.0,92,0.00,,,0.04,Wunderground v.1.15,2013-12-03 23:35:00,
2013-12-03 18:40:00,51.1,48.6,29.83,East,98,2.0,3.0,91,0.00,,,0.04,Wunderground v.1.15,2013-12-03 23:40:00,
2013-12-03 18:44:00,50.7,48.7,29.83,East,99,1.0,3.0,93,0.00,,,0.04,Wunderground v.1.15,2013-12-03 23:44:00,
2013-12-03 18:50:00,50.8,48.8,29.83,ESE,109,1.0,1.0,93,0.00,,,0.04,Wunderground v.1.15,2013-12-03 23:50:00,
2013-12-03 18:55:00,50.9,48.9,29.83,ESE,109,1.0,1.0,93,0.00,,,0.04,Wunderground v.1.15,2013-12-03 23:55:00,
2013-12-03 19:00:00,51.0,49.0,29.84,ESE,109,1.0,3.0,93,0.00,,,0.04,Wunderground v.1.15,2013-12-04 00:00:00,
2013-12-03 19:05:00,51.2,49.2,29.84,ESE,109,1.0,3.0,93,0.00,,,0.04,Wunderground v.1.15,2013-12-04 00:05:00,
2013-12-03 19:10:00,51.3,49.3,29.84,ESE,109,1.0,1.0,93,0.00,,,0.04,Wunderground v.1.15,2013-12-04 00:10:00,
2013-12-03 19:20:00,51.3,49.3,29.84,ESE,109,0.0,0.0,93,0.00,,,0.04,Wunderground v.1.15,2013-12-04 00:20:00,
2013-12-03 19:25:00,51.4,49.2,29.84,ESE,109,0.0,0.0,92,0.00,,,0.04,Wunderground v.1.15,2013-12-04 00:25:00,
2013-12-03 19:30:00,51.5,49.3,29.85,ESE,109,0.0,0.0,92,0.00,,,0.04,Wunderground v.1.15,2013-12-04 00:30:00,
2013-12-03 19:34:00,51.5,49.3,29.86,ESE,109,0.0,1.0,92,0.00,,,0.04,Wunderground v.1.15,2013-12-04 00:34:00,
2013-12-03 19:40:00,51.6,49.4,29.86,ESE,109,0.0,0.0,92,0.00,,,0.04,Wunderground v.1.15,2013-12-04 00:40:00,
2013-12-03 19:45:00,51.6,49.4,29.85,ESE,110,1.0,1.0,92,0.00,,,0.04,Wunderground v.1.15,2013-12-04 00:45:00,
2013-12-03 19:50:00,51.6,49.4,29.85,ESE,110,1.0,1.0,92,0.00,,,0.04,Wunderground v.1.15,2013-12-04 00:50:00,
2013-12-03 20:00:00,51.4,49.2,29.85,ESE,113,2.0,4.0,92,0.00,,,0.04,Wunderground v.1.15,2013-12-04 01:00:00,
2013-12-03 20:05:00,51.4,49.2,29.85,ESE,115,2.0,4.0,92,0.00,,,0.04,Wunderground v.1.15,2013-12-04 01:05:00,
2013-12-03 20:10:00,51.3,49.1,29.85,ESE,115,2.0,2.0,92,0.00,,,0.04,Wunderground v.1.15,2013-12-04 01:10:00,
2013-12-03 20:15:00,51.4,49.2,29.85,ESE,121,2.0,3.0,92,0.00,,,0.04,Wunderground v.1.15,2013-12-04 01:15:00,
2013-12-03 20:20:00,51.4,49.2,29.85,ESE,121,2.0,2.0,92,0.00,,,0.04,Wunderground v.1.15,2013-12-04 01:20:00,
2013-12-03 20:25:00,51.4,49.2,29.85,ESE,121,1.0,2.0,92,0.00,,,0.04,Wunderground v.1.15,2013-12-04 01:25:00,
2013-12-03 20:30:00,51.4,49.2,29.85,ESE,119,1.0,2.0,92,0.00,,,0.04,Wunderground v.1.15,2013-12-04 01:30:00,
2013-12-03 20:35:00,51.3,49.1,29.85,ESE,119,1.0,2.0,92,0.00,,,0.04,Wunderground v.1.15,2013-12-04 01:35:00,
2013-12-03 20:40:00,51.1,48.9,29.85,ESE,119,1.0,1.0,92,0.00,,,0.04,Wunderground v.1.15,2013-12-04 01:40:00,
2013-12-03 20:45:00,51.0,48.8,29.84,ESE,119,0.0,1.0,92,0.00,,,0.04,Wunderground v.1.15,2013-12-04 01:45:00,
2013-12-03 20:50:00,50.9,48.7,29.84,ESE,119,0.0,0.0,92,0.00,,,0.04,Wunderground v.1.15,2013-12-04 01:50:00,
2013-12-03 20:55:00,50.9,48.7,29.84,ESE,119,0.0,0.0,92,0.00,,,0.04,Wunderground v.1.15,2013-12-04 01:55:00,
2013-12-03 20:59:00,50.8,48.6,29.84,ESE,119,0.0,6.0,92,0.00,,,0.04,Wunderground v.1.15,2013-12-04 01:59:00,
2013-12-03 21:05:00,50.6,48.7,29.84,ESE,119,0.0,6.0,93,0.00,,,0.04,Wunderground v.1.15,2013-12-04 02:05:00,
2013-12-03 21:09:00,50.5,48.6,29.84,ESE,119,0.0,0.0,93,0.00,,,0.04,Wunderground v.1.15,2013-12-04 02:09:00,
2013-12-03 21:15:00,50.5,48.8,29.84,ESE,119,0.0,0.0,94,0.00,,,0.04,Wunderground v.1.15,2013-12-04 02:15:00,
2013-12-03 21:20:00,50.6,48.9,29.84,ESE,119,0.0,0.0,94,0.00,,,0.04,Wunderground v.1.15,2013-12-04 02:20:00,
2013-12-03 21:25:00,50.6,48.9,29.84,ESE,119,0.0,1.0,94,0.00,,,0.04,Wunderground v.1.15,2013-12-04 02:25:00,
2013-12-03 21:30:00,50.8,49.1,29.85,ESE,119,0.0,0.0,94,0.00,,,0.04,Wunderground v.1.15,2013-12-04 02:30:00,
2013-12-03 21:35:00,50.8,49.1,29.85,ESE,119,0.0,0.0,94,0.00,,,0.04,Wunderground v.1.15,2013-12-04 02:35:00,
2013-12-03 21:40:00,50.8,49.1,29.85,ESE,119,0.0,0.0,94,0.00,,,0.04,Wunderground v.1.15,2013-12-04 02:40:00,
2013-12-03 21:45:00,50.8,49.1,29.85,ESE,119,0.0,0.0,94,0.00,,,0.04,Wunderground v.1.15,2013-12-04 02:45:00,
2013-12-03 21:50:00,50.8,49.1,29.85,ESE,118,1.0,1.0,94,0.00,,,0.04,Wunderground v.1.15,2013-12-04 02:50:00,
2013-12-03 21:55:00,50.7,49.0,29.85,ESE,118,1.0,1.0,94,0.00,,,0.04,Wunderground v.1.15,2013-12-04 02:55:00,
2013-12-03 22:00:00,50.7,49.0,29.85,ESE,119,1.0,2.0,94,0.00,,,0.04,Wunderground v.1.15,2013-12-04 03:00:00,
2013-12-03 22:05:00,50.7,49.0,29.86,ESE,119,1.0,2.0,94,0.00,,,0.04,Wunderground v.1.15,2013-12-04 03:05:00,
2013-12-03 22:15:00,51.0,49.3,29.85,ESE,116,1.0,3.0,94,0.00,,,0.04,Wunderground v.1.15,2013-12-04 03:15:00,
2013-12-03 22:20:00,51.1,49.4,29.86,ESE,115,1.0,1.0,94,0.00,,,0.04,Wunderground v.1.15,2013-12-04 03:20:00,
2013-12-03 22:25:00,51.3,49.3,29.86,ESE,116,1.0,1.0,93,0.00,,,0.04,Wunderground v.1.15,2013-12-04 03:25:00,
2013-12-03 22:30:00,51.3,49.3,29.86,ESE,116,1.0,1.0,93,0.00,,,0.04,Wunderground v.1.15,2013-12-04 03:30:00,
2013-12-03 22:34:00,51.4,49.7,29.87,ESE,116,1.0,1.0,94,0.00,,,0.04,Wunderground v.1.15,2013-12-04 03:34:00,
2013-12-03 22:40:00,51.6,49.6,29.86,ESE,116,1.0,1.0,93,0.00,,,0.04,Wunderground v.1.15,2013-12-04 03:40:00,
2013-12-03 22:45:00,51.8,49.8,29.86,ESE,116,1.0,1.0,93,0.00,,,0.04,Wunderground v.1.15,2013-12-04 03:45:00,
2013-12-03 22:50:00,51.9,49.9,29.86,ESE,111,1.0,1.0,93,0.00,,,0.04,Wunderground v.1.15,2013-12-04 03:50:00,
2013-12-03 23:00:00,52.2,50.2,29.87,ESE,114,1.0,3.0,93,0.00,,,0.04,Wunderground v.1.15,2013-12-04 04:00:00,
2013-12-03 23:05:00,52.3,50.0,29.87,ESE,114,1.0,3.0,92,0.00,,,0.04,Wunderground v.1.15,2013-12-04 04:05:00,
2013-12-03 23:10:00,52.3,50.0,29.87,ESE,109,2.0,2.0,92,0.00,,,0.04,Wunderground v.1.15,2013-12-04 04:10:00,
2013-12-03 23:15:00,52.3,50.0,29.88,ESE,109,1.0,2.0,92,0.00,,,0.04,Wunderground v.1.15,2013-12-04 04:15:00,
2013-12-03 23:20:00,52.4,50.1,29.87,ESE,109,0.0,0.0,92,0.00,,,0.04,Wunderground v.1.15,2013-12-04 04:20:00,
2013-12-03 23:25:00,52.4,50.1,29.87,ESE,109,1.0,1.0,92,0.00,,,0.04,Wunderground v.1.15,2013-12-04 04:25:00,
2013-12-03 23:35:00,52.4,50.1,29.87,ESE,109,0.0,1.0,92,0.00,,,0.04,Wunderground v.1.15,2013-12-04 04:35:00,
2013-12-03 23:40:00,52.3,50.0,29.87,ESE,109,1.0,1.0,92,0.00,,,0.04,Wunderground v.1.15,2013-12-04 04:40:00,
2013-12-03 23:44:00,52.3,50.0,29.87,ESE,109,0.0,1.0,92,0.00,,,0.04,Wunderground v.1.15,2013-12-04 04:44:00,
2013-12-03 23:50:00,52.3,50.0,29.87,ESE,109,0.0,1.0,92,0.00,,,0.04,Wunderground v.1.15,2013-12-04 04:50:00,
2013-12-03 23:55:00,52.4,50.4,29.87,ESE,110,1.0,1.0,93,0.00,,,0.04,Wunderground v.1.15,2013-12-04 04:55:00,